Alpha, Minnesota
Current Conditions -  °F | °C
As of 4:34 AM on Sunday 26 Oct 2014 (Local Time) from KMJQ Reporting Station
Scattered Clouds Scattered Clouds  
Wind Chill: 33°   Ceiling: Unl
Heat Index: 37°   Visibility: 10mi
Dew Point: 30°   Wind: 6mph
Humidity: 75%   Direction: 120°ESE
Pressure: 29.99"   Gusts: NA
Location:  43.64°N, 94.87°W
Report Text: KMJQ 260934Z AUTO 12005KT 10SM SCT100 SCT120 03/M01 A2999 RMK AO2
Loading
Personal Weather Stations






























Interactive Weather Map New forecast layout! Learn more

10-Day Weather Forecast

Advertisements
Track Severe Weather on mobile